Time;durP1;ratioP1;P1;durP2;ratioP2;P2;SDS_P1;SDS_P2;PMS_P1;PMS_P2;Temp;Humidity;BMP_temperature;BMP_pressure;BME280_temperature;BME280_humidity;BME280_pressure;Samples;Min_cycle;Max_cycle;Signal;HPM_P1;HPM_P2
2022/09/19 00:01:22;;;;;;;3.63;2.53;;;19.10;59.90;;;;;;4936081;29;20067;-59
2022/09/19 00:03:55;;;;;;;3.92;2.47;;;19.10;59.80;;;;;;4935753;29;20549;-61
2022/09/19 00:06:22;;;;;;;3.80;2.30;;;19.10;60.50;;;;;;4935885;29;20038;-58
2022/09/19 00:08:49;;;;;;;3.20;2.38;;;19.10;59.90;;;;;;4919194;29;20043;-60
2022/09/19 00:11:19;;;;;;;3.40;2.28;;;19.10;59.90;;;;;;4935634;29;20039;-57
2022/09/19 00:13:48;;;;;;;3.38;2.28;;;19.10;59.90;;;;;;4935441;29;20395;-59
2022/09/19 00:16:23;;;;;;;3.95;2.40;;;19.10;59.90;;;;;;4919084;29;20036;-58
2022/09/19 00:18:51;;;;;;;4.35;2.40;;;19.10;59.90;;;;;;4934803;29;20393;-61
2022/09/19 00:21:29;;;;;;;4.70;2.22;;;19.10;60.00;;;;;;4918935;29;20047;-60
2022/09/19 00:26:41;;;;;;;3.90;2.40;;;19.10;59.90;;;;;;4934335;29;20028;-59
2022/09/19 00:29:09;;;;;;;3.65;2.35;;;19.10;60.00;;;;;;4918442;29;20099;-60
2022/09/19 00:31:36;;;;;;;3.58;2.40;;;19.10;59.90;;;;;;4935395;29;20063;-60
2022/09/19 00:34:06;;;;;;;3.72;2.40;;;19.00;59.80;;;;;;4935316;29;20039;-60
2022/09/19 00:36:37;;;;;;;3.10;2.10;;;19.10;59.80;;;;;;4934487;29;20062;-60
2022/09/19 00:39:05;;;;;;;4.20;2.40;;;19.00;59.90;;;;;;4918376;29;20047;-59
2022/09/19 00:41:32;;;;;;;4.65;2.40;;;19.10;59.90;;;;;;4934164;29;20038;-60
2022/09/19 00:44:04;;;;;;;3.53;2.35;;;19.00;59.80;;;;;;4918688;29;20130;-60
2022/09/19 00:46:33;;;;;;;4.15;2.70;;;19.10;59.90;;;;;;4935435;29;20501;-60
2022/09/19 00:49:10;;;;;;;3.25;2.13;;;19.10;59.90;;;;;;4935261;29;20059;-60
2022/09/19 00:51:47;;;;;;;4.55;2.50;;;19.00;59.90;;;;;;4918237;29;20044;-60
2022/09/19 00:54:17;;;;;;;3.53;2.10;;;19.10;59.90;;;;;;4918015;29;20390;-60
2022/09/19 00:56:51;;;;;;;4.05;2.20;;;19.00;59.80;;;;;;4933794;29;20310;-59
2022/09/19 00:59:19;;;;;;;3.70;2.30;;;19.00;59.80;;;;;;4949557;29;20132;-60
2022/09/19 01:01:48;;;;;;;3.55;2.15;;;19.10;59.90;;;;;;4933597;29;20544;-57
2022/09/19 01:04:17;;;;;;;2.97;2.28;;;19.00;59.80;;;;;;4934922;29;20039;-60
2022/09/19 01:06:55;;;;;;;;;;;19.00;59.80;;;;;;4934093;29;20036;-60
2022/09/19 01:09:41;;;;;;;3.03;2.20;;;19.00;59.90;;;;;;4933764;29;20365;-60
2022/09/19 01:12:47;;;;;;;3.75;2.33;;;19.00;59.90;;;;;;4933480;29;20399;-61
2022/09/19 01:15:54;;;;;;;3.50;2.17;;;19.00;59.80;;;;;;4917749;29;20074;-60
2022/09/19 01:18:31;;;;;;;3.40;2.13;;;19.00;59.80;;;;;;4933491;29;20031;-59
2022/09/19 01:24:10;;;;;;;5.72;2.40;;;19.00;59.80;;;;;;4933398;29;20028;-59
2022/09/19 01:26:59;;;;;;;3.70;2.13;;;19.00;59.90;;;;;;4917447;29;20065;-59
2022/09/19 01:29:36;;;;;;;2.97;2.15;;;19.00;59.90;;;;;;4917400;29;20046;-59
2022/09/19 01:32:06;;;;;;;3.17;2.05;;;19.00;59.90;;;;;;4933358;29;20118;-59
2022/09/19 01:34:38;;;;;;;4.97;2.40;;;19.00;59.80;;;;;;4949322;29;20442;-59
2022/09/19 01:37:16;;;;;;;3.22;2.05;;;19.00;59.80;;;;;;4933527;29;20087;-59
2022/09/19 01:39:47;;;;;;;3.58;2.15;;;19.00;59.80;;;;;;4933489;29;20042;-59
2022/09/19 01:42:17;;;;;;;4.78;2.22;;;19.00;60.00;;;;;;4933095;29;20039;-59
2022/09/19 01:44:43;;;;;;;3.78;2.17;;;19.00;59.90;;;;;;4933403;29;20036;-60
2022/09/19 01:47:47;;;;;;;3.22;2.15;;;19.00;60.40;;;;;;4933351;29;20058;-59
2022/09/19 01:50:23;;;;;;;4.30;2.05;;;19.00;59.80;;;;;;4933212;29;20059;-60
2022/09/19 01:53:19;;;;;;;4.25;2.20;;;19.00;59.70;;;;;;4933213;29;20126;-59
2022/09/19 01:56:28;;;;;;;4.30;2.20;;;19.00;59.70;;;;;;4925564;29;20048;-60
2022/09/19 01:59:35;;;;;;;3.13;2.13;;;19.00;59.70;;;;;;4933227;29;20064;-59
2022/09/19 02:02:29;;;;;;;3.20;2.25;;;19.00;59.70;;;;;;4933095;29;20047;-59
2022/09/19 02:05:42;;;;;;;4.05;2.22;;;19.00;59.70;;;;;;4917538;29;20036;-60
2022/09/19 02:08:45;;;;;;;3.65;2.08;;;19.00;59.60;;;;;;4925614;29;20048;-59
2022/09/19 02:11:17;;;;;;;4.55;2.30;;;19.00;59.60;;;;;;4853966;29;20127;-60
2022/09/19 02:14:10;;;;;;;3.05;2.10;;;19.00;59.60;;;;;;4933181;29;20065;-60
2022/09/19 02:16:46;;;;;;;5.60;2.58;;;19.00;59.60;;;;;;4934486;29;20372;-60
2022/09/19 02:19:28;;;;;;;3.60;2.20;;;19.00;59.50;;;;;;4932996;29;20478;-61
2022/09/19 02:21:58;;;;;;;2.58;1.83;;;19.00;59.50;;;;;;4902235;29;20455;-58
2022/09/19 02:24:30;;;;;;;3.55;2.20;;;19.00;60.10;;;;;;4932841;29;20538;-58
2022/09/19 02:27:08;;;;;;;6.15;2.30;;;19.00;59.60;;;;;;4917147;29;20040;-59
2022/09/19 02:29:48;;;;;;;3.20;2.20;;;19.00;59.60;;;;;;4933127;29;20115;-59
2022/09/19 02:32:19;;;;;;;3.35;2.10;;;19.00;59.60;;;;;;4932808;29;20039;-57
2022/09/19 02:34:49;;;;;;;3.00;2.05;;;19.00;59.60;;;;;;4932773;29;20100;-59
2022/09/19 02:37:35;;;;;;;4.20;1.90;;;19.00;59.60;;;;;;4951217;28;20095;-59
2022/09/19 02:40:05;;;;;;;3.40;1.95;;;19.00;59.60;;;;;;4920658;29;20406;-59
2022/09/19 02:42:55;;;;;;;3.20;2.10;;;19.00;59.70;;;;;;4920715;29;20095;-58
2022/09/19 02:45:34;;;;;;;3.55;2.25;;;19.00;59.60;;;;;;4936175;29;20039;-58
2022/09/19 02:48:11;;;;;;;3.58;2.28;;;19.00;59.70;;;;;;4936169;29;20035;-58
2022/09/19 02:51:09;;;;;;;3.38;2.03;;;19.00;59.70;;;;;;4952099;29;20461;-59
2022/09/19 02:53:46;;;;;;;3.38;1.92;;;19.00;59.70;;;;;;4920454;29;20058;-57
2022/09/19 02:56:21;;;;;;;3.50;1.98;;;19.00;59.70;;;;;;4936147;29;20394;-59
2022/09/19 02:59:03;;;;;;;2.22;1.55;;;19.00;59.70;;;;;;4936317;29;20038;-60
2022/09/19 03:01:44;;;;;;;3.10;2.00;;;18.90;59.70;;;;;;4920306;29;20427;-59
2022/09/19 03:04:15;;;;;;;3.38;2.20;;;19.00;59.70;;;;;;4935907;29;20087;-58
2022/09/19 03:06:57;;;;;;;3.25;1.95;;;18.90;59.60;;;;;;4936083;29;20035;-59
2022/09/19 03:09:29;;;;;;;3.28;2.00;;;18.90;60.20;;;;;;4936032;29;20055;-59
2022/09/19 03:12:50;;;;;;;3.88;2.15;;;19.00;59.70;;;;;;4936907;29;20406;-59
2022/09/19 03:15:48;;;;;;;3.00;1.90;;;19.00;59.80;;;;;;4934322;29;20044;-58
2022/09/19 03:18:18;;;;;;;2.20;1.80;;;18.90;59.70;;;;;;4901415;29;20078;-59
2022/09/19 03:20:47;;;;;;;4.80;2.13;;;18.90;59.70;;;;;;4935372;29;20039;-58
2022/09/19 03:23:19;;;;;;;2.85;2.00;;;18.90;59.60;;;;;;4935412;29;20059;-56
2022/09/19 03:25:46;;;;;;;4.15;2.28;;;19.00;59.70;;;;;;4935387;29;20482;-60
2022/09/19 03:28:13;;;;;;;2.42;1.92;;;18.90;59.70;;;;;;4935342;29;20099;-59
2022/09/19 03:30:40;;;;;;;2.38;1.83;;;19.00;59.80;;;;;;4935287;29;20495;-59
2022/09/19 03:33:06;;;;;;;2.58;2.15;;;18.90;59.70;;;;;;4935221;29;20074;-60
2022/09/19 03:35:33;;;;;;;2.22;1.70;;;18.90;59.80;;;;;;4935303;29;20039;-59
2022/09/19 03:38:01;;;;;;;3.55;2.00;;;18.90;60.30;;;;;;4919535;29;20401;-59
2022/09/19 03:40:27;;;;;;;3.65;2.40;;;18.90;59.80;;;;;;4935003;29;20051;-59
2022/09/19 03:42:55;;;;;;;2.45;1.80;;;18.90;59.70;;;;;;4935069;29;20443;-58
2022/09/19 03:45:24;;;;;;;2.38;1.70;;;18.90;59.80;;;;;;4935109;29;20410;-58
2022/09/19 03:47:50;;;;;;;2.60;1.90;;;18.90;59.80;;;;;;4934230;29;20038;-59
2022/09/19 03:50:17;;;;;;;2.85;1.98;;;19.00;59.80;;;;;;4919342;29;20553;-56
2022/09/19 03:53:03;;;;;;;3.72;2.10;;;18.90;59.70;;;;;;4928887;29;20043;-58
2022/09/19 03:55:30;;;;;;;2.80;1.90;;;18.90;59.80;;;;;;4934951;29;20135;-59
2022/09/19 03:57:56;;;;;;;2.15;1.80;;;18.90;59.80;;;;;;4935147;29;20039;-59
2022/09/19 04:00:23;;;;;;;2.50;1.77;;;18.90;59.70;;;;;;4934762;29;20047;-59
2022/09/19 04:02:49;;;;;;;3.65;2.20;;;18.90;59.80;;;;;;4934992;29;20071;-59
2022/09/19 04:05:16;;;;;;;3.10;1.88;;;18.90;59.80;;;;;;4936099;29;20034;-59
2022/09/19 04:07:42;;;;;;;3.65;2.08;;;18.90;59.80;;;;;;4934688;29;20040;-59
2022/09/19 04:10:08;;;;;;;3.90;1.88;;;18.90;59.70;;;;;;4903276;29;20366;-59
2022/09/19 04:12:36;;;;;;;4.57;2.13;;;18.90;59.80;;;;;;4934578;29;20062;-59
2022/09/19 04:15:03;;;;;;;3.90;2.13;;;18.90;59.70;;;;;;4918698;29;20505;-60
2022/09/19 04:17:30;;;;;;;2.92;1.80;;;18.90;59.70;;;;;;4934693;29;20114;-59
2022/09/19 04:20:03;;;;;;;2.38;1.83;;;18.90;59.80;;;;;;4934638;29;20032;-59
2022/09/19 04:23:00;;;;;;;2.70;2.00;;;18.90;59.80;;;;;;4926637;29;20039;-58
2022/09/19 04:25:46;;;;;;;3.00;1.70;;;18.90;59.80;;;;;;4935657;29;20032;-60
2022/09/19 04:28:20;;;;;;;2.78;2.00;;;18.90;59.80;;;;;;4934469;29;20028;-59
2022/09/19 04:30:47;;;;;;;3.00;2.13;;;18.90;59.80;;;;;;4934357;29;20043;-57
2022/09/19 04:33:15;;;;;;;3.35;2.00;;;18.90;59.80;;;;;;4918385;29;20505;-59
2022/09/19 04:35:43;;;;;;;3.88;1.67;;;18.90;59.80;;;;;;4934129;29;20028;-58
2022/09/19 04:38:14;;;;;;;3.75;1.95;;;18.90;59.80;;;;;;4934399;29;20426;-58
2022/09/19 04:40:42;;;;;;;2.75;1.88;;;18.90;59.80;;;;;;4934095;29;20046;-57
2022/09/19 04:43:11;;;;;;;3.25;2.03;;;18.90;59.70;;;;;;4934236;29;20372;-59
2022/09/19 04:45:44;;;;;;;2.92;1.70;;;18.90;59.80;;;;;;4934082;29;20397;-58
2022/09/19 04:48:30;;;;;;;;;;;18.90;59.80;;;;;;4934411;29;20386;-59
2022/09/19 04:50:57;;;;;;;2.85;2.10;;;18.90;59.80;;;;;;4934033;29;19919;-59
2022/09/19 04:53:26;;;;;;;3.17;1.70;;;18.90;59.70;;;;;;4933815;29;20043;-59
2022/09/19 04:55:56;;;;;;;3.03;1.90;;;18.90;60.20;;;;;;4933859;29;20024;-59
2022/09/19 04:58:23;;;;;;;3.15;1.90;;;18.90;59.60;;;;;;4934038;29;20402;-60
2022/09/19 05:00:52;;;;;;;2.60;1.80;;;18.90;59.70;;;;;;4933811;29;20051;-58
2022/09/19 05:03:19;;;;;;;2.88;1.90;;;18.90;59.60;;;;;;4930844;29;20115;-59
2022/09/19 05:05:51;;;;;;;2.80;2.00;;;18.90;59.60;;;;;;4915919;29;20585;-58
2022/09/19 05:18:58;;;;;;;3.15;1.98;;;18.90;59.10;;;;;;5029059;28;20413;-64
2022/09/19 05:21:24;;;;;;;2.35;1.70;;;18.90;59.60;;;;;;5027571;28;20037;-65
2022/09/19 05:23:51;;;;;;;3.40;1.80;;;18.90;59.50;;;;;;5008625;23;20077;-61
2022/09/19 05:26:17;;;;;;;3.20;1.88;;;18.90;59.50;;;;;;5007490;28;20472;-60
2022/09/19 05:28:46;;;;;;;3.25;1.85;;;18.90;59.50;;;;;;5007768;28;20029;-60
2022/09/19 05:31:16;;;;;;;3.65;1.80;;;18.90;59.50;;;;;;5007952;28;20041;-59
2022/09/19 05:33:48;;;;;;;2.22;1.70;;;18.90;59.50;;;;;;5007649;28;20034;-59
2022/09/19 05:36:20;;;;;;;2.30;1.83;;;18.90;59.50;;;;;;5007789;28;20035;-59
2022/09/19 05:39:14;;;;;;;2.63;1.73;;;18.90;59.50;;;;;;5007595;28;20397;-60
2022/09/19 05:42:08;;;;;;;2.75;2.00;;;18.90;59.50;;;;;;5007575;28;20037;-59
2022/09/19 05:44:34;;;;;;;4.25;1.98;;;18.90;59.60;;;;;;5007587;28;20041;-59
2022/09/19 05:47:02;;;;;;;2.42;1.92;;;18.90;59.60;;;;;;4991640;28;20053;-59
2022/09/19 05:49:30;;;;;;;2.95;1.80;;;18.90;59.70;;;;;;5007167;28;20058;-59
2022/09/19 05:53:51;;;;;;;2.22;1.77;;;18.90;59.70;;;;;;4991089;28;20081;-60
2022/09/19 05:54:43;;;;;;;3.28;1.92;;;18.90;59.70;;;;;;4977539;28;20038;-59
2022/09/19 05:57:28;;;;;;;2.15;1.90;;;18.90;59.70;;;;;;5007477;28;20105;-60
2022/09/19 05:59:56;;;;;;;2.75;1.92;;;18.90;59.70;;;;;;5007480;28;20514;-59
2022/09/19 06:02:22;;;;;;;2.33;1.70;;;18.90;59.80;;;;;;5007313;28;20034;-60
2022/09/19 06:04:55;;;;;;;2.38;1.80;;;18.90;59.80;;;;;;5006930;28;20110;-59
2022/09/19 06:07:23;;;;;;;2.10;1.80;;;18.90;59.80;;;;;;5006908;28;20569;-60
2022/09/19 06:09:52;;;;;;;2.30;1.73;;;18.90;59.80;;;;;;4990834;28;20066;-55
2022/09/19 06:12:19;;;;;;;3.42;2.08;;;18.90;59.80;;;;;;5006870;28;20394;-59
2022/09/19 06:14:45;;;;;;;2.80;2.05;;;18.90;59.80;;;;;;5007066;28;20087;-59
2022/09/19 06:17:15;;;;;;;3.20;2.05;;;18.90;59.80;;;;;;5006946;28;20072;-60
2022/09/19 06:20:16;;;;;;;3.42;2.10;;;18.90;59.80;;;;;;4953649;29;20065;-59
2022/09/19 06:22:46;;;;;;;2.55;1.92;;;18.90;59.80;;;;;;4982904;28;20137;-60
2022/09/19 06:25:19;;;;;;;2.20;1.80;;;18.90;59.80;;;;;;4994009;28;20034;-61
2022/09/19 06:27:53;;;;;;;2.78;1.88;;;18.80;59.80;;;;;;4994914;28;20042;-61
2022/09/19 06:30:18;;;;;;;2.95;2.03;;;18.80;59.80;;;;;;4993625;28;20540;-60
2022/09/19 06:33:13;;;;;;;2.72;2.05;;;18.90;59.90;;;;;;4985591;28;20045;-59
2022/09/19 06:35:49;;;;;;;2.63;1.90;;;18.90;59.90;;;;;;4993781;28;20119;-60
2022/09/19 06:38:18;;;;;;;3.10;2.25;;;18.90;59.90;;;;;;4993504;28;20030;-59
2022/09/19 06:40:44;;;;;;;3.20;2.17;;;18.80;59.90;;;;;;4993308;28;20030;-61
2022/09/19 06:43:26;;;;;;;2.75;1.73;;;18.90;59.90;;;;;;4979457;28;20027;-60
2022/09/19 06:46:10;;;;;;;2.97;2.10;;;18.90;59.90;;;;;;4993669;28;20429;-61
2022/09/19 06:49:07;;;;;;;3.13;2.20;;;18.90;59.90;;;;;;4954398;28;20125;-58
2022/09/19 06:51:40;;;;;;;3.35;2.00;;;18.80;59.90;;;;;;4993223;28;20061;-59
2022/09/19 06:54:08;;;;;;;2.80;2.08;;;18.90;59.90;;;;;;4993132;28;20041;-60
2022/09/19 06:56:34;;;;;;;3.03;2.13;;;18.80;59.80;;;;;;4993148;28;20030;-59
2022/09/19 06:59:03;;;;;;;3.03;1.83;;;18.80;59.90;;;;;;4993016;28;20109;-60
2022/09/19 07:01:32;;;;;;;2.97;2.03;;;18.80;59.80;;;;;;4992865;28;20038;-60
2022/09/19 07:03:58;;;;;;;3.33;1.90;;;18.90;59.90;;;;;;4993233;28;20035;-59
2022/09/19 07:06:38;;;;;;;2.05;1.80;;;18.90;59.90;;;;;;4993140;28;20049;-58
2022/09/19 07:09:11;;;;;;;3.00;1.92;;;18.90;59.90;;;;;;4993136;28;20733;-61
2022/09/19 07:11:38;;;;;;;2.55;1.80;;;18.90;59.90;;;;;;4992997;28;20030;-60
2022/09/19 07:14:05;;;;;;;2.67;2.03;;;18.80;60.50;;;;;;4993103;28;20058;-59
2022/09/19 07:16:31;;;;;;;2.90;1.88;;;18.80;59.90;;;;;;4993017;28;20455;-60
2022/09/19 07:18:59;;;;;;;2.58;2.05;;;18.80;59.80;;;;;;4992718;28;20057;-58
2022/09/19 07:21:47;;;;;;;4.07;2.05;;;18.90;60.00;;;;;;4974069;28;20046;-60
2022/09/19 07:24:17;;;;;;;3.03;1.98;;;18.80;59.90;;;;;;4992467;28;20486;-59
2022/09/19 07:27:07;;;;;;;;;;;18.90;59.90;;;;;;4993100;28;20038;-59
2022/09/19 07:29:33;;;;;;;4.55;2.30;;;18.80;59.90;;;;;;4992193;28;20009;-59
2022/09/19 07:32:01;;;;;;;4.32;2.10;;;18.90;60.00;;;;;;4991940;28;20026;-60
2022/09/19 07:34:27;;;;;;;3.67;2.17;;;18.80;59.90;;;;;;4992841;28;20224;-60
2022/09/19 07:36:53;;;;;;;3.60;2.30;;;18.80;59.90;;;;;;4976213;28;20039;-59
2022/09/19 07:39:19;;;;;;;2.45;1.92;;;18.90;60.00;;;;;;4993687;28;20034;-58
2022/09/19 07:41:51;;;;;;;2.80;2.10;;;18.90;60.00;;;;;;4993570;28;20390;-60
2022/09/19 07:44:35;;;;;;;3.22;2.08;;;18.90;60.10;;;;;;4993445;28;20497;-59
2022/09/19 07:47:28;;;;;;;3.03;2.15;;;18.80;60.00;;;;;;4991918;28;20518;-58
2022/09/19 07:50:07;;;;;;;2.60;1.80;;;18.80;60.00;;;;;;4992051;28;20415;-60
2022/09/19 07:52:37;;;;;;;3.72;2.20;;;18.80;60.00;;;;;;4975845;28;20045;-58
2022/09/19 07:55:07;;;;;;;2.47;1.73;;;18.80;60.00;;;;;;4992350;28;20030;-59
2022/09/19 07:57:33;;;;;;;3.20;2.03;;;18.80;60.00;;;;;;4991992;28;20030;-59
2022/09/19 08:00:00;;;;;;;3.38;2.10;;;18.80;60.00;;;;;;4992122;28;20035;-59
2022/09/19 08:02:26;;;;;;;2.90;1.90;;;18.80;60.00;;;;;;4991838;28;20044;-59
2022/09/19 08:04:53;;;;;;;3.15;1.95;;;18.90;60.00;;;;;;4992051;28;20058;-59
2022/09/19 08:07:20;;;;;;;4.05;2.20;;;18.90;60.00;;;;;;4991970;28;20042;-59
2022/09/19 08:09:47;;;;;;;3.25;2.30;;;18.80;59.90;;;;;;4975658;28;20030;-59
2022/09/19 08:12:33;;;;;;;2.75;2.00;;;18.90;59.90;;;;;;4992954;28;20169;-58
2022/09/19 08:15:09;;;;;;;5.70;2.30;;;18.90;59.90;;;;;;4991942;28;20030;-59
2022/09/19 08:17:36;;;;;;;3.38;2.30;;;18.90;59.90;;;;;;4991807;28;20037;-59
2022/09/19 08:20:03;;;;;;;4.28;2.15;;;18.90;59.90;;;;;;4991460;28;20545;-59
2022/09/19 08:22:32;;;;;;;2.70;1.83;;;18.90;59.90;;;;;;4991510;28;20076;-59
2022/09/19 08:25:06;;;;;;;3.05;2.03;;;18.90;59.90;;;;;;4991409;28;20471;-60
2022/09/19 08:27:33;;;;;;;3.47;2.03;;;18.90;59.90;;;;;;4991469;28;20070;-59
2022/09/19 08:29:59;;;;;;;3.95;2.50;;;18.90;60.00;;;;;;4991448;28;20053;-58
2022/09/19 08:32:26;;;;;;;3.83;2.28;;;18.90;59.90;;;;;;4975499;28;20518;-58
2022/09/19 08:34:53;;;;;;;3.20;1.85;;;18.90;59.90;;;;;;4991453;28;20026;-57
2022/09/19 08:37:20;;;;;;;3.50;2.00;;;18.90;59.90;;;;;;4991152;28;20034;-58
2022/09/19 08:40:15;;;;;;;4.03;2.25;;;18.90;59.90;;;;;;4991181;28;20125;-57
2022/09/19 08:42:55;;;;;;;3.33;2.30;;;18.90;59.90;;;;;;4990940;28;20038;-57
2022/09/19 08:45:33;;;;;;;3.40;2.20;;;18.90;60.00;;;;;;4991072;28;20078;-60
2022/09/19 08:48:05;;;;;;;2.72;2.00;;;18.90;60.00;;;;;;4975137;28;20058;-60
2022/09/19 08:50:34;;;;;;;5.18;2.58;;;18.90;60.00;;;;;;4991211;28;20430;-60
2022/09/19 08:53:12;;;;;;;3.80;2.03;;;18.90;60.00;;;;;;4991329;28;20030;-59
2022/09/19 08:55:41;;;;;;;3.60;2.35;;;18.90;60.10;;;;;;4991424;28;20081;-59
2022/09/19 08:58:23;;;;;;;5.22;2.30;;;18.90;60.10;;;;;;4991410;28;20030;-59
2022/09/19 09:01:09;;;;;;;2.90;2.17;;;18.90;60.10;;;;;;4992275;28;20430;-58
2022/09/19 09:04:06;;;;;;;3.42;2.30;;;18.90;60.10;;;;;;4975094;28;20065;-58
2022/09/19 09:06:57;;;;;;;3.40;2.05;;;18.90;60.10;;;;;;4990625;28;20052;-60
2022/09/19 09:09:35;;;;;;;3.30;2.28;;;18.90;60.10;;;;;;4975294;28;20077;-58
2022/09/19 09:12:08;;;;;;;2.97;2.05;;;18.90;60.00;;;;;;4992331;28;20038;-59
2022/09/19 09:15:01;;;;;;;3.72;2.40;;;18.90;60.00;;;;;;4991111;28;20042;-59
2022/09/19 09:17:51;;;;;;;3.58;2.22;;;18.90;60.00;;;;;;4990894;28;20475;-59
2022/09/19 09:20:17;;;;;;;2.88;2.20;;;18.90;60.00;;;;;;4990961;28;20110;-57
2022/09/19 09:22:48;;;;;;;3.38;2.17;;;18.90;59.90;;;;;;4974750;28;20045;-60
2022/09/19 09:25:42;;;;;;;3.08;2.15;;;18.90;60.00;;;;;;4986228;28;20117;-60
2022/09/19 09:28:41;;;;;;;3.22;2.17;;;18.90;60.00;;;;;;4990891;28;20165;-60
2022/09/19 09:31:27;;;;;;;4.80;2.38;;;18.90;60.10;;;;;;4967680;28;20050;-60
2022/09/19 09:34:06;;;;;;;3.58;2.45;;;18.90;60.10;;;;;;4974964;28;20034;-60
2022/09/19 09:36:41;;;;;;;3.60;2.30;;;18.90;60.00;;;;;;4991013;28;20046;-60
2022/09/19 09:39:49;;;;;;;3.45;2.20;;;18.90;60.00;;;;;;4990571;28;20030;-60
2022/09/19 09:42:21;;;;;;;10.65;3.92;;;18.90;60.00;;;;;;4971964;28;20038;-60
2022/09/19 09:45:22;;;;;;;10.18;3.58;;;18.90;60.60;;;;;;4987731;28;20209;-61
2022/09/19 09:48:16;;;;;;;13.88;2.80;;;19.00;61.60;;;;;;4974279;28;20039;-60
2022/09/19 09:51:03;;;;;;;9.52;2.85;;;19.00;60.70;;;;;;4982677;28;20105;-60
2022/09/19 09:56:14;;;;;;;7.60;3.22;;;19.00;60.80;;;;;;4973075;28;20053;-60
2022/09/19 09:57:00;;;;;;;5.50;3.22;;;19.00;60.90;;;;;;4975916;28;20034;-60
2022/09/19 10:05:57;;;;;;;14.50;4.47;;;19.00;61.40;;;;;;4993931;28;20037;-61
2022/09/19 10:08:52;;;;;;;15.20;8.57;;;19.00;61.50;;;;;;4991060;28;20042;-62
2022/09/19 10:11:25;;;;;;;32.33;15.25;;;18.90;61.50;;;;;;4997812;28;20034;-60
2022/09/19 10:13:59;;;;;;;18.23;8.75;;;18.90;62.20;;;;;;5005821;23;20054;-69
2022/09/19 10:16:32;;;;;;;25.20;14.40;;;18.90;62.30;;;;;;4976941;28;20030;-69
2022/09/19 10:19:26;;;;;;;25.20;13.82;;;18.90;62.30;;;;;;4989782;28;20041;-70
2022/09/19 10:21:56;;;;;;;23.83;12.38;;;18.90;62.60;;;;;;4936675;28;20042;-69
2022/09/19 10:24:59;;;;;;;23.40;10.85;;;18.90;62.40;;;;;;4986301;28;20058;-70
2022/09/19 10:27:32;;;;;;;20.58;11.88;;;18.90;62.60;;;;;;4990970;28;20030;-70
2022/09/19 10:30:19;;;;;;;22.63;12.57;;;18.90;62.50;;;;;;4989959;28;20033;-69
2022/09/19 10:32:47;;;;;;;20.63;11.65;;;18.90;62.60;;;;;;4991162;28;20019;-69
2022/09/19 10:35:32;;;;;;;19.40;11.10;;;18.90;62.50;;;;;;4991963;28;20038;-69
2022/09/19 10:38:13;;;;;;;20.30;11.30;;;18.90;62.40;;;;;;4971820;28;20110;-69
2022/09/19 10:40:57;;;;;;;18.98;11.25;;;18.90;62.50;;;;;;4973058;28;20053;-69
2022/09/19 10:43:32;;;;;;;25.13;11.73;;;18.90;62.40;;;;;;4970730;28;20446;-70
2022/09/19 10:46:07;;;;;;;27.88;11.75;;;18.90;62.30;;;;;;4991047;28;20038;-70
2022/09/19 10:48:39;;;;;;;29.23;12.07;;;18.90;62.40;;;;;;4990655;28;20058;-69
2022/09/19 10:51:10;;;;;;;;;;;18.90;62.90;;;;;;4990895;28;20086;-69
2022/09/19 10:53:39;;;;;;;27.02;11.05;;;19.00;62.10;;;;;;4990639;28;19909;-69
2022/09/19 10:56:27;;;;;;;23.70;10.80;;;19.00;62.10;;;;;;4990905;28;20033;-71
2022/09/19 10:59:36;;;;;;;22.60;9.65;;;18.90;62.80;;;;;;4973556;28;20066;-70
2022/09/19 11:02:29;;;;;;;27.40;10.70;;;18.90;61.70;;;;;;4963441;28;20633;-70
2022/09/19 11:05:02;;;;;;;23.90;11.02;;;19.00;62.80;;;;;;4992842;28;20041;-70
2022/09/19 11:07:48;;;;;;;20.10;10.57;;;19.00;65.20;;;;;;4976589;28;20062;-70
2022/09/19 11:10:40;;;;;;;23.42;10.63;;;19.10;63.20;;;;;;4992068;28;20030;-70
2022/09/19 11:13:17;;;;;;;25.55;10.68;;;19.10;62.50;;;;;;4988481;28;20030;-70
2022/09/19 11:16:02;;;;;;;29.20;11.65;;;19.10;63.10;;;;;;4991081;28;20049;-70
2022/09/19 11:18:43;;;;;;;26.80;11.95;;;19.10;63.60;;;;;;4989980;28;20294;-70
2022/09/19 11:21:30;;;;;;;25.58;11.73;;;19.20;63.80;;;;;;4988703;28;20504;-70
2022/09/19 11:24:34;;;;;;;21.70;10.63;;;19.20;63.90;;;;;;5011101;23;20570;-60
2022/09/19 11:27:24;;;;;;;21.20;11.30;;;19.20;63.80;;;;;;4982195;28;20045;-60
2022/09/19 11:30:18;;;;;;;25.02;12.30;;;19.20;63.70;;;;;;4963961;28;20055;-61
2022/09/19 11:32:48;;;;;;;25.75;12.30;;;19.30;64.40;;;;;;4970810;28;20030;-61
2022/09/19 11:35:23;;;;;;;21.00;11.75;;;19.30;64.20;;;;;;4972455;28;20491;-61
2022/09/19 11:38:19;;;;;;;26.15;12.50;;;19.30;63.30;;;;;;4988275;28;20531;-61
2022/09/19 11:40:56;;;;;;;26.98;12.35;;;19.30;63.20;;;;;;4957021;28;20411;-60
2022/09/19 11:43:29;;;;;;;29.98;12.70;;;19.30;63.40;;;;;;4973318;28;20037;-61
2022/09/19 11:46:41;;;;;;;24.05;12.00;;;19.40;63.40;;;;;;4971128;28;20166;-61
2022/09/19 11:49:23;;;;;;;31.88;13.70;;;19.30;63.30;;;;;;4956274;28;20049;-62
2022/09/19 11:52:18;;;;;;;27.85;12.90;;;19.30;63.10;;;;;;4972053;28;20035;-60
2022/09/19 11:55:06;;;;;;;30.23;14.90;;;19.30;63.10;;;;;;4972890;28;20027;-61
2022/09/19 11:57:39;;;;;;;27.60;13.77;;;19.30;63.80;;;;;;4971452;28;20034;-60
2022/09/19 12:00:21;;;;;;;27.38;13.50;;;19.40;63.40;;;;;;4970461;28;20390;-61
2022/09/19 12:02:58;;;;;;;28.92;13.57;;;19.30;63.40;;;;;;4955956;28;20037;-60
2022/09/19 12:05:50;;;;;;;34.35;14.32;;;19.30;63.30;;;;;;4971591;28;20044;-61
2022/09/19 12:08:39;;;;;;;27.75;13.65;;;19.30;63.20;;;;;;4970779;28;20097;-60
2022/09/19 12:11:19;;;;;;;31.60;14.27;;;19.30;63.40;;;;;;4972304;28;20049;-60
2022/09/19 12:13:57;;;;;;;35.42;13.40;;;19.30;63.70;;;;;;4971179;28;20553;-61
2022/09/19 12:16:44;;;;;;;35.75;14.13;;;19.30;63.60;;;;;;4970339;28;20026;-60
2022/09/19 12:19:21;;;;;;;37.20;13.90;;;19.30;63.80;;;;;;4983881;28;20049;-60
2022/09/19 12:21:53;;;;;;;32.38;15.13;;;19.30;63.90;;;;;;4985548;28;20031;-60
2022/09/19 12:24:53;;;;;;;58.63;15.75;;;19.20;63.70;;;;;;4983455;28;20108;-60
2022/09/19 12:28:01;;;;;;;31.17;14.23;;;19.30;64.30;;;;;;4966855;28;20113;-61
2022/09/19 12:30:33;;;;;;;37.35;14.63;;;19.20;64.20;;;;;;4980055;28;20046;-61
2022/09/19 12:33:32;;;;;;;30.90;14.60;;;19.20;64.10;;;;;;4991134;28;20038;-61
2022/09/19 12:36:06;;;;;;;30.98;14.05;;;19.20;64.10;;;;;;4981730;28;20026;-62
2022/09/19 12:38:49;;;;;;;37.85;14.55;;;19.20;64.60;;;;;;4969428;28;20027;-61
2022/09/19 12:41:20;;;;;;;28.30;13.43;;;19.20;64.10;;;;;;4983525;28;20047;-61
2022/09/19 12:43:59;;;;;;;31.35;13.38;;;19.20;65.00;;;;;;4964933;28;20056;-61
2022/09/19 12:46:44;;;;;;;33.42;13.57;;;19.30;64.60;;;;;;4983547;28;20060;-62
2022/09/19 12:49:37;;;;;;;29.35;13.10;;;19.30;64.60;;;;;;4973783;28;20080;-61
2022/09/19 12:52:33;;;;;;;28.08;12.38;;;19.30;63.90;;;;;;4991797;28;20526;-62
2022/09/19 12:55:28;;;;;;;33.72;13.80;;;19.20;63.80;;;;;;4974615;28;20026;-61
2022/09/19 12:58:01;;;;;;;30.88;12.57;;;19.30;64.40;;;;;;4990361;28;20031;-61
2022/09/19 13:00:29;;;;;;;28.65;12.95;;;19.30;64.10;;;;;;4990279;28;20069;-61
2022/09/19 13:02:58;;;;;;;27.08;11.88;;;19.30;64.10;;;;;;4989832;28;20042;-61
2022/09/19 13:05:59;;;;;;;27.02;11.93;;;19.30;64.20;;;;;;4990484;28;20046;-61
2022/09/19 13:08:35;;;;;;;27.23;12.85;;;19.30;64.10;;;;;;4986148;28;20813;-61
2022/09/19 13:11:16;;;;;;;32.75;14.20;;;19.30;64.70;;;;;;4961952;28;20039;-61
2022/09/19 13:13:51;;;;;;;31.85;14.52;;;19.40;66.70;;;;;;4957985;28;20045;-61
2022/09/19 13:16:21;;;;;;;27.52;12.60;;;19.40;65.50;;;;;;4979999;28;20085;-61
2022/09/19 13:24:50;;;;;;;35.30;15.07;;;19.30;65.30;;;;;;4990211;28;20486;-60
2022/09/19 13:27:17;;;;;;;32.30;13.95;;;19.40;66.40;;;;;;4973406;28;20130;-61
2022/09/19 13:29:45;;;;;;;30.27;13.88;;;19.40;66.30;;;;;;4993352;28;20050;-60
2022/09/19 13:32:26;;;;;;;26.73;13.32;;;19.30;65.40;;;;;;4994039;28;20089;-60
2022/09/19 13:35:01;;;;;;;28.63;12.98;;;19.30;65.60;;;;;;4992723;28;20054;-60
2022/09/19 13:37:28;;;;;;;30.33;13.82;;;19.30;66.30;;;;;;4985367;28;20066;-60
2022/09/19 13:40:27;;;;;;;25.90;13.55;;;19.30;65.60;;;;;;4992557;28;20034;-60
2022/09/19 13:43:13;;;;;;;28.98;12.70;;;19.30;67.00;;;;;;4980434;28;20034;-60
2022/09/19 13:46:03;;;;;;;35.80;12.15;;;19.20;66.20;;;;;;4993840;28;20034;-60
2022/09/19 13:48:39;;;;;;;27.88;11.23;;;19.20;66.20;;;;;;4985483;28;20046;-60
2022/09/19 13:51:23;;;;;;;28.95;12.18;;;19.20;66.60;;;;;;4986297;28;20410;-60
2022/09/19 13:54:13;;;;;;;27.17;11.52;;;19.20;66.30;;;;;;4988748;28;20026;-60
2022/09/19 13:56:40;;;;;;;24.98;11.30;;;19.20;66.30;;;;;;4986825;28;20035;-60
2022/09/19 13:59:29;;;;;;;25.92;10.05;;;19.20;67.30;;;;;;4994936;28;20030;-60
2022/09/19 14:02:00;;;;;;;23.30;10.93;;;19.20;66.10;;;;;;4994113;28;20429;-59
2022/09/19 14:05:02;;;;;;;22.80;10.75;;;19.30;66.20;;;;;;4989132;28;20277;-60